TimePDT,TemperatureF,Dew PointF,Humidity,Sea Level PressureIn,VisibilityMPH,Wind Direction,Wind SpeedMPH,Gust SpeedMPH,PrecipitationIn,Events,Conditions,WindDirDegrees,DateUTC
12:35 AM,37.4,26.6,65,29.80,10.0,WSW,20.7,24.2,N/A,,Mostly Cloudy,240,2012-10-23 07:35:00
1:15 AM,33.8,28.4,81,29.79,10.0,West,11.5,17.3,N/A,,Mostly Cloudy,280,2012-10-23 08:15:00
1:55 AM,35.6,28.4,75,29.80,10.0,WNW,10.4,19.6,N/A,,Overcast,290,2012-10-23 08:55:00
2:15 AM,35.6,28.4,75,29.80,10.0,West,18.4,-,N/A,Snow,Light Snow,270,2012-10-23 09:15:00
2:55 AM,35.6,30.2,81,29.82,10.0,WNW,10.4,-,N/A,,Overcast,290,2012-10-23 09:55:00
3:15 AM,35.6,28.4,75,29.83,10.0,West,10.4,-,N/A,,Overcast,280,2012-10-23 10:15:00
3:35 AM,37.4,28.4,70,29.83,9.0,WSW,20.7,26.5,N/A,Snow,Light Snow,250,2012-10-23 10:35:00
4:35 AM,32.0,30.2,93,29.85,10.0,West,11.5,-,N/A,Rain,Light Rain,280,2012-10-23 11:35:00
4:55 AM,32.0,28.4,87,29.85,8.0,West,12.7,-,N/A,Snow,Light Snow,280,2012-10-23 11:55:00
5:35 AM,32.0,28.4,87,29.87,9.0,West,10.4,-,N/A,Snow,Light Snow,280,2012-10-23 12:35:00
6:15 AM,32.0,26.6,80,29.89,10.0,WNW,6.9,-,N/A,,Mostly Cloudy,290,2012-10-23 13:15:00
6:35 AM,32.0,26.6,80,29.90,10.0,WNW,6.9,-,N/A,,Mostly Cloudy,290,2012-10-23 13:35:00
8:15 AM,35.6,23.0,60,29.93,10.0,WNW,11.5,-,N/A,,Mostly Cloudy,290,2012-10-23 15:15:00
8:55 AM,35.6,23.0,60,29.93,10.0,West,15.0,-,N/A,,Clear,280,2012-10-23 15:55:00
9:15 AM,35.6,23.0,60,29.93,10.0,West,17.3,26.5,N/A,,Clear,270,2012-10-23 16:15:00
9:35 AM,37.4,23.0,56,29.94,10.0,WSW,16.1,24.2,N/A,,Clear,240,2012-10-23 16:35:00
9:55 AM,35.6,23.0,60,29.94,10.0,WSW,18.4,27.6,N/A,,Clear,240,2012-10-23 16:55:00
10:15 AM,37.4,23.0,56,29.94,10.0,WSW,20.7,26.5,N/A,,Clear,240,2012-10-23 17:15:00
10:35 AM,37.4,23.0,56,29.95,10.0,WSW,17.3,20.7,N/A,,Clear,240,2012-10-23 17:35:00
10:55 AM,39.2,23.0,52,29.95,10.0,WSW,17.3,27.6,N/A,,Clear,240,2012-10-23 17:55:00
11:35 AM,41.0,23.0,49,29.94,10.0,WSW,23.0,29.9,N/A,,Clear,240,2012-10-23 18:35:00
11:55 AM,41.0,19.4,42,29.94,10.0,WSW,23.0,29.9,N/A,,Clear,240,2012-10-23 18:55:00
12:15 PM,42.8,19.4,39,29.95,10.0,SW,18.4,26.5,N/A,,Clear,230,2012-10-23 19:15:00
12:35 PM,42.8,19.4,39,29.96,10.0,SW,18.4,31.1,N/A,,Clear,230,2012-10-23 19:35:00
12:55 PM,42.8,19.4,39,29.95,10.0,WSW,15.0,27.6,N/A,,Clear,240,2012-10-23 19:55:00
1:15 PM,44.6,19.4,37,29.95,10.0,WSW,18.4,29.9,N/A,,Clear,240,2012-10-23 20:15:00
1:35 PM,42.8,17.6,36,29.94,10.0,WSW,20.7,27.6,N/A,,Clear,240,2012-10-23 20:35:00
1:55 PM,41.0,17.6,39,29.94,10.0,SW,19.6,32.2,N/A,,Clear,230,2012-10-23 20:55:00
2:15 PM,42.8,17.6,36,29.93,10.0,SW,23.0,32.2,N/A,,Clear,230,2012-10-23 21:15:00
2:35 PM,44.6,17.6,34,29.94,10.0,WSW,26.5,32.2,N/A,,Clear,240,2012-10-23 21:35:00
2:55 PM,44.6,17.6,34,29.94,10.0,West,24.2,29.9,N/A,,Clear,260,2012-10-23 21:55:00
3:15 PM,44.6,19.4,37,29.94,10.0,WSW,23.0,31.1,N/A,,Clear,240,2012-10-23 22:15:00
3:35 PM,44.6,17.6,34,29.93,10.0,WSW,26.5,32.2,N/A,,Clear,240,2012-10-23 22:35:00
3:55 PM,44.6,17.6,34,29.93,10.0,WSW,26.5,33.4,N/A,,Clear,250,2012-10-23 22:55:00
4:15 PM,42.8,17.6,36,29.94,10.0,WSW,25.3,38.0,N/A,,Clear,250,2012-10-23 23:15:00
4:35 PM,41.0,19.4,42,29.94,10.0,WSW,25.3,33.4,N/A,,Clear,250,2012-10-23 23:35:00
4:55 PM,41.0,19.4,42,29.93,10.0,WSW,24.2,32.2,N/A,,Clear,250,2012-10-23 23:55:00
5:15 PM,41.0,17.6,39,29.94,10.0,WSW,20.7,28.8,N/A,,Clear,240,2012-10-24 00:15:00
5:35 PM,39.2,17.6,42,29.95,10.0,West,12.7,20.7,N/A,,Clear,260,2012-10-24 00:35:00
5:55 PM,37.4,17.6,45,29.96,10.0,NW,8.1,17.3,N/A,,Clear,310,2012-10-24 00:55:00
6:15 PM,37.4,17.6,45,29.97,10.0,NW,6.9,16.1,N/A,,Clear,310,2012-10-24 01:15:00
6:35 PM,37.4,17.6,45,29.97,10.0,NE,4.6,-,N/A,,Clear,40,2012-10-24 01:35:00
6:55 PM,37.4,17.6,45,29.98,10.0,ENE,5.8,-,N/A,,Mostly Cloudy,60,2012-10-24 01:55:00
7:15 PM,37.4,17.6,45,29.99,10.0,NNW,4.6,-,N/A,,Overcast,340,2012-10-24 02:15:00
7:35 PM,35.6,17.6,48,29.98,10.0,WNW,5.8,-,N/A,,Scattered Clouds,300,2012-10-24 02:35:00
7:55 PM,35.6,21.2,56,29.98,10.0,West,11.5,16.1,N/A,,Scattered Clouds,270,2012-10-24 02:55:00
8:15 PM,35.6,21.2,56,29.98,10.0,West,9.2,-,N/A,,Mostly Cloudy,270,2012-10-24 03:15:00
8:35 PM,35.6,21.2,56,29.98,10.0,Calm,Calm,-,N/A,,Scattered Clouds,0,2012-10-24 03:35:00
8:55 PM,32.0,19.4,60,29.97,10.0,West,6.9,-,N/A,,Clear,260,2012-10-24 03:55:00
9:15 PM,32.0,19.4,60,29.98,10.0,NNE,4.6,-,N/A,,Clear,20,2012-10-24 04:15:00
9:35 PM,32.0,19.4,60,29.98,10.0,Calm,Calm,-,N/A,,Partly Cloudy,0,2012-10-24 04:35:00
9:55 PM,32.0,19.4,60,29.97,10.0,NW,6.9,-,N/A,,Partly Cloudy,320,2012-10-24 04:55:00
10:15 PM,32.0,19.4,60,29.97,10.0,NW,4.6,-,N/A,,Clear,320,2012-10-24 05:15:00
10:35 PM,33.8,19.4,56,29.97,10.0,West,4.6,-,N/A,,Clear,280,2012-10-24 05:35:00
10:55 PM,37.4,19.4,48,29.96,10.0,SW,12.7,18.4,N/A,,Clear,220,2012-10-24 05:55:00
11:15 PM,32.0,19.4,60,29.97,10.0,East,6.9,-,N/A,,Clear,90,2012-10-24 06:15:00
11:35 PM,32.0,19.4,60,29.97,10.0,ENE,6.9,-,N/A,,Clear,60,2012-10-24 06:35:00
11:55 PM,30.2,17.6,60,29.97,10.0,North,5.8,-,N/A,,Clear,10,2012-10-24 06:55:00